aviador You're here:

KVNC Decoded Metar

in
Report Time2018-07-22 14:15:00
UTC Time2018-07-22 14:28:06
Flight Rules vfr VFR
Wind270° at 13 kt
W.Decomp.*RWY 31: 10.0 kt HW 8.4 kt LCW
RWY 23: 10.0 kt HW 8.4 kt RCW
W.Rank270° ranks 24
Current wind is above 270° avg. (7.5)
Visibility9999 m
Phenomena:N/A
Clouds:Few 020 Hf
Scattered 026 Hf
Scattered 036 Hf
Expected CloudBase > 2,400 ft AGL from Temp-Dew spread
CeilingNone
Temp32°C
Dew Point26°C (71% RH)
Heat Index40.8°C
QNH1015 hPa
Raw Report
METAR KVNC 221415Z AUTO 27013KT 7SM FEW020 SCT026 SCT036 32/26 A2997
RMK AO2=

Extra information for KVNC:More info

Social comments